createdAt,value
2023-04-03T00:00:56.138Z,1017.38
2023-04-03T00:01:56.145Z,1017.39
2023-04-03T00:02:56.148Z,1017.38
2023-04-03T00:03:56.061Z,1017.39
2023-04-03T00:04:56.059Z,1017.39
2023-04-03T00:05:56.088Z,1017.39
2023-04-03T00:06:56.176Z,1017.39
2023-04-03T00:07:56.073Z,1017.39
2023-04-03T00:08:55.986Z,1017.39
2023-04-03T00:09:56.009Z,1017.40
2023-04-03T00:10:56.030Z,1017.42
2023-04-03T00:11:56.035Z,1017.43
2023-04-03T00:12:55.998Z,1017.42
2023-04-03T00:13:55.932Z,1017.43
2023-04-03T00:14:55.955Z,1017.44
2023-04-03T00:15:55.995Z,1017.42
2023-04-03T00:16:55.990Z,1017.44
2023-04-03T00:17:55.986Z,1017.44
2023-04-03T00:18:55.909Z,1017.47
2023-04-03T00:19:56.094Z,1017.45
2023-04-03T00:20:55.882Z,1017.45
2023-04-03T00:21:55.912Z,1017.45
2023-04-03T00:22:56.343Z,1017.45
2023-04-03T00:23:55.981Z,1017.47
2023-04-03T00:24:55.893Z,1017.47
2023-04-03T00:25:55.943Z,1017.46
2023-04-03T00:26:55.826Z,1017.46
2023-04-03T00:27:55.839Z,1017.48
2023-04-03T00:28:55.890Z,1017.50
2023-04-03T00:29:55.832Z,1017.50
2023-04-03T00:30:55.830Z,1017.50
2023-04-03T00:31:55.802Z,1017.49
2023-04-03T00:32:55.795Z,1017.48
2023-04-03T00:33:55.868Z,1017.47
2023-04-03T00:34:55.767Z,1017.46
2023-04-03T00:35:55.807Z,1017.46
2023-04-03T00:36:55.851Z,1017.47
2023-04-03T00:37:55.814Z,1017.46
2023-04-03T00:38:55.814Z,1017.47
2023-04-03T00:39:55.712Z,1017.47
2023-04-03T00:40:55.823Z,1017.47
2023-04-03T00:41:55.676Z,1017.47
2023-04-03T00:42:55.704Z,1017.47
2023-04-03T00:43:55.690Z,1017.47
2023-04-03T00:44:55.703Z,1017.49
2023-04-03T00:45:55.649Z,1017.49
2023-04-03T00:46:55.614Z,1017.50
2023-04-03T00:47:55.851Z,1017.51
2023-04-03T00:48:55.655Z,1017.53
2023-04-03T00:49:55.656Z,1017.54
2023-04-03T00:50:55.632Z,1017.55
2023-04-03T00:51:55.597Z,1017.57
2023-04-03T00:52:55.540Z,1017.57
2023-04-03T00:53:55.584Z,1017.59
2023-04-03T00:54:55.651Z,1017.57
2023-04-03T00:55:55.586Z,1017.56
2023-04-03T00:56:55.585Z,1017.56
2023-04-03T00:57:55.558Z,1017.56
2023-04-03T00:58:55.540Z,1017.56
2023-04-03T00:59:55.528Z,1017.57
2023-04-03T01:00:55.470Z,1017.56
2023-04-03T01:01:55.494Z,1017.55
2023-04-03T01:02:55.503Z,1017.55
2023-04-03T01:03:55.496Z,1017.53
2023-04-03T01:04:55.416Z,1017.52
2023-04-03T01:05:55.436Z,1017.54
2023-04-03T01:06:55.404Z,1017.53
2023-04-03T01:07:55.426Z,1017.52
2023-04-03T01:08:55.373Z,1017.52
2023-04-03T01:09:55.371Z,1017.52
2023-04-03T01:10:55.415Z,1017.52
2023-04-03T01:11:55.407Z,1017.51
2023-04-03T01:12:55.358Z,1017.50
2023-04-03T01:13:55.378Z,1017.51
2023-04-03T01:14:55.416Z,1017.50
2023-04-03T01:15:55.525Z,1017.51
2023-04-03T01:16:55.288Z,1017.52
2023-04-03T01:17:55.361Z,1017.54
2023-04-03T01:18:55.272Z,1017.54
2023-04-03T01:19:55.283Z,1017.54
2023-04-03T01:20:55.273Z,1017.54
2023-04-03T01:21:55.261Z,1017.55
2023-04-03T01:22:55.227Z,1017.55
2023-04-03T01:23:55.231Z,1017.54
2023-04-03T01:24:55.220Z,1017.55
2023-04-03T01:25:55.300Z,1017.54
2023-04-03T01:26:55.209Z,1017.54
2023-04-03T01:27:55.196Z,1017.53
2023-04-03T01:28:55.173Z,1017.52
2023-04-03T01:29:55.202Z,1017.52
2023-04-03T01:30:55.196Z,1017.54
2023-04-03T01:31:55.244Z,1017.55
2023-04-03T01:32:55.189Z,1017.56
2023-04-03T01:33:55.162Z,1017.58
2023-04-03T01:34:55.114Z,1017.59
2023-04-03T01:35:55.152Z,1017.58
2023-04-03T01:36:55.327Z,1017.58
2023-04-03T01:37:55.123Z,1017.57
2023-04-03T01:38:55.101Z,1017.57
2023-04-03T01:39:55.061Z,1017.56
2023-04-03T01:40:55.051Z,1017.58
2023-04-03T01:41:55.064Z,1017.59
2023-04-03T01:42:55.055Z,1017.60
2023-04-03T01:43:55.072Z,1017.62
2023-04-03T01:44:55.026Z,1017.64
2023-04-03T01:45:55.070Z,1017.65
2023-04-03T01:46:55.002Z,1017.65
2023-04-03T01:47:55.048Z,1017.64
2023-04-03T01:48:55.065Z,1017.64
2023-04-03T01:49:55.006Z,1017.64
2023-04-03T01:50:54.958Z,1017.65
2023-04-03T01:51:55.033Z,1017.67
2023-04-03T01:52:55.024Z,1017.68
2023-04-03T01:53:54.952Z,1017.70
2023-04-03T01:54:54.947Z,1017.71
2023-04-03T01:55:54.956Z,1017.75
2023-04-03T01:56:54.937Z,1017.76
2023-04-03T01:57:54.877Z,1017.79
2023-04-03T01:58:54.915Z,1017.78
2023-04-03T01:59:54.892Z,1017.75
2023-04-03T02:00:54.925Z,1017.75
2023-04-03T02:01:54.834Z,1017.77
2023-04-03T02:02:54.890Z,1017.77
2023-04-03T02:03:54.893Z,1017.81
2023-04-03T02:04:54.839Z,1017.79
2023-04-03T02:05:54.814Z,1017.78
2023-04-03T02:06:54.786Z,1017.77
2023-04-03T02:07:54.791Z,1017.76
2023-04-03T02:08:54.790Z,1017.78
2023-04-03T02:09:54.802Z,1017.79
2023-04-03T02:10:54.816Z,1017.79
2023-04-03T02:11:54.739Z,1017.79
2023-04-03T02:12:54.738Z,1017.79
2023-04-03T02:13:54.732Z,1017.78
2023-04-03T02:14:54.936Z,1017.78
2023-04-03T02:15:54.704Z,1017.76
2023-04-03T02:16:54.751Z,1017.76
2023-04-03T02:17:54.744Z,1017.77
2023-04-03T02:18:54.673Z,1017.79
2023-04-03T02:19:54.694Z,1017.78
2023-04-03T02:20:54.676Z,1017.77
2023-04-03T02:21:54.627Z,1017.77
2023-04-03T02:22:54.651Z,1017.76
2023-04-03T02:23:54.695Z,1017.76
2023-04-03T02:24:54.612Z,1017.77
2023-04-03T02:25:54.671Z,1017.76
2023-04-03T02:26:54.637Z,1017.76
2023-04-03T02:27:54.570Z,1017.76
2023-04-03T02:28:54.584Z,1017.77
2023-04-03T02:29:54.563Z,1017.78
2023-04-03T02:30:54.691Z,1017.77
2023-04-03T02:31:54.547Z,1017.74
2023-04-03T02:32:54.679Z,1017.76
2023-04-03T02:33:54.508Z,1017.75
2023-04-03T02:34:54.515Z,1017.76
2023-04-03T02:35:54.593Z,1017.74
2023-04-03T02:36:54.612Z,1017.77
2023-04-03T02:37:54.461Z,1017.80
2023-04-03T02:38:54.475Z,1017.81
2023-04-03T02:39:54.460Z,1017.82
2023-04-03T02:40:54.445Z,1017.83
2023-04-03T02:41:54.455Z,1017.83
2023-04-03T02:42:54.434Z,1017.83
2023-04-03T02:43:54.405Z,1017.85
2023-04-03T02:44:54.420Z,1017.87
2023-04-03T02:45:54.437Z,1017.86
2023-04-03T02:46:54.532Z,1017.86
2023-04-03T02:47:54.424Z,1017.84
2023-04-03T02:48:54.365Z,1017.85
2023-04-03T02:49:54.352Z,1017.86
2023-04-03T02:50:54.348Z,1017.86
2023-04-03T02:51:54.336Z,1017.87
2023-04-03T02:52:54.360Z,1017.88
2023-04-03T02:53:54.312Z,1017.88
2023-04-03T02:54:54.313Z,1017.89
2023-04-03T02:55:54.291Z,1017.89
2023-04-03T02:56:54.324Z,1017.89
2023-04-03T02:57:54.450Z,1017.88
2023-04-03T02:58:54.284Z,1017.89
2023-04-03T02:59:54.266Z,1017.89
2023-04-03T03:00:54.251Z,1017.92
2023-04-03T03:01:54.280Z,1017.92
2023-04-03T03:02:54.285Z,1017.93
2023-04-03T03:03:54.235Z,1017.92
2023-04-03T03:04:54.244Z,1017.90
2023-04-03T03:05:54.201Z,1017.88
2023-04-03T03:06:54.199Z,1017.89
2023-04-03T03:07:54.186Z,1017.88
2023-04-03T03:08:54.649Z,1017.88
2023-04-03T03:09:54.190Z,1017.88
2023-04-03T03:10:54.149Z,1017.86
2023-04-03T03:11:54.190Z,1017.85
2023-04-03T03:12:54.138Z,1017.84
2023-04-03T03:13:54.148Z,1017.86
2023-04-03T03:14:54.162Z,1017.84
2023-04-03T03:15:54.161Z,1017.84
2023-04-03T03:16:54.096Z,1017.83
2023-04-03T03:17:54.114Z,1017.82
2023-04-03T03:18:54.116Z,1017.82
2023-04-03T03:19:54.048Z,1017.83
2023-04-03T03:20:54.075Z,1017.83
2023-04-03T03:21:54.059Z,1017.83
2023-04-03T03:22:54.033Z,1017.84
2023-04-03T03:23:54.031Z,1017.84
2023-04-03T03:24:54.018Z,1017.85
2023-04-03T03:25:54.013Z,1017.86
2023-04-03T03:26:53.990Z,1017.84
2023-04-03T03:27:54.057Z,1017.83
2023-04-03T03:28:54.009Z,1017.84
2023-04-03T03:29:53.942Z,1017.84
2023-04-03T03:30:54.160Z,1017.84
2023-04-03T03:31:54.067Z,1017.84
2023-04-03T03:32:53.984Z,1017.84
2023-04-03T03:33:53.911Z,1017.84
2023-04-03T03:34:53.941Z,1017.85
2023-04-03T03:35:53.931Z,1017.84
2023-04-03T03:36:53.948Z,1017.85
2023-04-03T03:37:53.883Z,1017.86
2023-04-03T03:38:53.860Z,1017.87
2023-04-03T03:39:53.868Z,1017.88
2023-04-03T03:40:53.850Z,1017.89
2023-04-03T03:41:53.821Z,1017.89
2023-04-03T03:42:53.860Z,1017.89
2023-04-03T03:43:53.839Z,1017.90
2023-04-03T03:44:53.820Z,1017.90
2023-04-03T03:45:53.826Z,1017.92
2023-04-03T03:46:53.792Z,1017.91
2023-04-03T03:47:53.880Z,1017.91
2023-04-03T03:48:53.873Z,1017.93
2023-04-03T03:49:53.770Z,1017.95
2023-04-03T03:50:53.779Z,1017.95
2023-04-03T03:51:53.787Z,1017.95
2023-04-03T03:52:53.747Z,1017.96
2023-04-03T03:53:53.713Z,1017.97
2023-04-03T03:54:53.719Z,1017.97
2023-04-03T03:55:53.866Z,1017.97
2023-04-03T03:56:53.711Z,1017.97
2023-04-03T03:57:53.697Z,1017.97
2023-04-03T03:58:53.703Z,1017.96
2023-04-03T03:59:53.726Z,1017.94
2023-04-03T04:00:53.714Z,1017.95
2023-04-03T04:01:53.707Z,1017.95
2023-04-03T04:02:54.084Z,1017.96
2023-04-03T04:03:53.656Z,1017.96
2023-04-03T04:04:53.708Z,1017.98
2023-04-03T04:05:53.674Z,1017.97
2023-04-03T04:06:53.751Z,1017.96
2023-04-03T04:07:53.679Z,1017.99
2023-04-03T04:08:53.575Z,1018.00
2023-04-03T04:09:53.700Z,1018.01
2023-04-03T04:10:53.646Z,1018.04
2023-04-03T04:11:53.816Z,1018.04
2023-04-03T04:12:53.726Z,1018.07
2023-04-03T04:13:53.612Z,1018.06
2023-04-03T04:14:53.647Z,1018.07
2023-04-03T04:15:53.772Z,1018.08
2023-04-03T04:16:53.622Z,1018.08
2023-04-03T04:17:53.781Z,1018.07
2023-04-03T04:18:53.641Z,1018.08
2023-04-03T04:19:53.529Z,1018.08
2023-04-03T04:20:53.498Z,1018.09
2023-04-03T04:21:53.645Z,1018.09
2023-04-03T04:22:53.721Z,1018.09
2023-04-03T04:23:53.545Z,1018.08
2023-04-03T04:24:53.592Z,1018.10
2023-04-03T04:25:53.459Z,1018.08
2023-04-03T04:26:53.474Z,1018.09
2023-04-03T04:27:53.430Z,1018.11
2023-04-03T04:28:53.897Z,1018.11
2023-04-03T04:29:53.363Z,1018.13
2023-04-03T04:30:53.630Z,1018.14
2023-04-03T04:31:53.343Z,1018.16
2023-04-03T04:32:53.416Z,1018.16
2023-04-03T04:33:53.383Z,1018.18
2023-04-03T04:34:53.357Z,1018.19
2023-04-03T04:35:53.441Z,1018.21
2023-04-03T04:36:53.394Z,1018.23
2023-04-03T04:37:53.208Z,1018.24
2023-04-03T04:38:53.215Z,1018.25
2023-04-03T04:39:53.235Z,1018.27
2023-04-03T04:40:53.203Z,1018.27
2023-04-03T04:41:53.177Z,1018.28
2023-04-03T04:42:53.209Z,1018.28
2023-04-03T04:43:53.240Z,1018.29
2023-04-03T04:44:53.161Z,1018.31
2023-04-03T04:45:53.186Z,1018.34
2023-04-03T04:46:53.131Z,1018.33
2023-04-03T04:47:53.193Z,1018.32
2023-04-03T04:48:53.104Z,1018.33
2023-04-03T04:49:53.097Z,1018.34
2023-04-03T04:50:53.084Z,1018.33
2023-04-03T04:51:53.101Z,1018.33
2023-04-03T04:52:53.069Z,1018.34
2023-04-03T04:53:55.520Z,1018.34
2023-04-03T04:54:53.036Z,1018.36
2023-04-03T04:55:53.071Z,1018.38
2023-04-03T04:56:53.092Z,1018.38
2023-04-03T04:57:53.053Z,1018.39
2023-04-03T04:58:53.056Z,1018.39
2023-04-03T04:59:53.039Z,1018.41
2023-04-03T05:00:53.007Z,1018.41
2023-04-03T05:01:53.024Z,1018.42
2023-04-03T05:02:53.041Z,1018.42
2023-04-03T05:03:53.092Z,1018.44
2023-04-03T05:04:53.046Z,1018.42
2023-04-03T05:05:52.944Z,1018.42
2023-04-03T05:06:52.938Z,1018.45
2023-04-03T05:07:52.947Z,1018.47
2023-04-03T05:08:52.976Z,1018.48
2023-04-03T05:09:52.944Z,1018.50
2023-04-03T05:10:54.811Z,1018.50
2023-04-03T05:11:52.993Z,1018.51
2023-04-03T05:12:53.924Z,1018.54
2023-04-03T05:13:53.011Z,1018.55
2023-04-03T05:14:52.876Z,1018.55
2023-04-03T05:15:52.863Z,1018.57
2023-04-03T05:16:52.894Z,1018.59
2023-04-03T05:17:52.889Z,1018.61
2023-04-03T05:18:52.885Z,1018.64
2023-04-03T05:19:54.001Z,1018.64
2023-04-03T05:20:52.979Z,1018.65
2023-04-03T05:21:52.857Z,1018.67
2023-04-03T05:22:52.813Z,1018.68
2023-04-03T05:23:52.933Z,1018.69
2023-04-03T05:24:52.751Z,1018.70
2023-04-03T05:25:52.859Z,1018.71
2023-04-03T05:26:52.763Z,1018.73
2023-04-03T05:27:52.839Z,1018.74
2023-04-03T05:28:53.022Z,1018.75
2023-04-03T05:29:52.856Z,1018.75
2023-04-03T05:30:52.755Z,1018.75
2023-04-03T05:31:52.829Z,1018.74
2023-04-03T05:32:52.879Z,1018.77
2023-04-03T05:33:52.856Z,1018.77
2023-04-03T05:34:52.782Z,1018.75
2023-04-03T05:35:52.764Z,1018.76
2023-04-03T05:36:52.946Z,1018.75
2023-04-03T05:37:53.534Z,1018.75
2023-04-03T05:38:52.904Z,1018.76
2023-04-03T05:39:52.851Z,1018.77
2023-04-03T05:40:52.977Z,1018.80
2023-04-03T05:41:52.876Z,1018.81
2023-04-03T05:42:52.946Z,1018.80
2023-04-03T05:43:52.986Z,1018.81
2023-04-03T05:44:52.918Z,1018.84
2023-04-03T05:45:53.121Z,1018.84
2023-04-03T05:46:52.844Z,1018.85
2023-04-03T05:47:53.131Z,1018.88
2023-04-03T05:48:52.953Z,1018.90
2023-04-03T05:49:52.854Z,1018.91
2023-04-03T05:50:52.925Z,1018.93
2023-04-03T05:51:52.909Z,1018.94
2023-04-03T05:52:52.947Z,1018.93
2023-04-03T05:53:52.716Z,1018.93
2023-04-03T05:54:52.827Z,1018.93
2023-04-03T05:55:52.935Z,1018.92
2023-04-03T05:56:53.150Z,1018.91
2023-04-03T05:57:52.870Z,1018.90
2023-04-03T05:58:52.478Z,1018.91
2023-04-03T05:59:52.539Z,1018.90
2023-04-03T06:00:52.637Z,1018.91
2023-04-03T06:01:52.601Z,1018.92
2023-04-03T06:02:52.999Z,1018.92
2023-04-03T06:03:52.711Z,1018.93
2023-04-03T06:04:53.147Z,1018.93
2023-04-03T06:05:52.863Z,1018.94
2023-04-03T06:06:52.430Z,1018.92
2023-04-03T06:07:52.985Z,1018.91
2023-04-03T06:08:52.952Z,1018.93
2023-04-03T06:09:52.355Z,1018.92
2023-04-03T06:10:52.469Z,1018.92
2023-04-03T06:11:52.397Z,1018.94
2023-04-03T06:12:52.335Z,1018.94
2023-04-03T06:13:52.336Z,1018.96
2023-04-03T06:14:52.355Z,1018.96
2023-04-03T06:15:52.263Z,1018.96
2023-04-03T06:16:53.251Z,1018.97
2023-04-03T06:17:52.847Z,1018.98
2023-04-03T06:18:52.284Z,1019.00
2023-04-03T06:19:52.292Z,1019.00
2023-04-03T06:20:52.266Z,1019.00
2023-04-03T06:21:52.778Z,1019.03
2023-04-03T06:22:52.186Z,1019.05
2023-04-03T06:23:52.186Z,1019.07
2023-04-03T06:24:52.716Z,1019.06
2023-04-03T06:25:52.141Z,1019.07
2023-04-03T06:26:52.144Z,1019.07
2023-04-03T06:27:52.351Z,1019.10
2023-04-03T06:28:52.130Z,1019.10
2023-04-03T06:29:52.220Z,1019.13
2023-04-03T06:30:52.166Z,1019.11
2023-04-03T06:31:52.181Z,1019.11
2023-04-03T06:32:52.096Z,1019.14
2023-04-03T06:33:52.084Z,1019.13
2023-04-03T06:34:52.073Z,1019.11
2023-04-03T06:35:52.112Z,1019.09
2023-04-03T06:36:52.154Z,1019.09
2023-04-03T06:37:52.028Z,1019.07
2023-04-03T06:38:52.064Z,1019.06
2023-04-03T06:39:52.063Z,1019.09
2023-04-03T06:40:52.107Z,1019.07
2023-04-03T06:41:52.112Z,1019.09
2023-04-03T06:42:52.041Z,1019.08
2023-04-03T06:43:52.116Z,1019.09
2023-04-03T06:44:52.005Z,1019.11
2023-04-03T06:45:51.985Z,1019.11
2023-04-03T06:46:51.944Z,1019.15
2023-04-03T06:47:51.961Z,1019.16
2023-04-03T06:48:51.914Z,1019.19
2023-04-03T06:49:51.908Z,1019.21
2023-04-03T06:50:51.890Z,1019.21
2023-04-03T06:51:51.946Z,1019.22
2023-04-03T06:52:51.979Z,1019.21
2023-04-03T06:53:51.950Z,1019.24
2023-04-03T06:54:51.919Z,1019.25
2023-04-03T06:55:52.093Z,1019.26
2023-04-03T06:56:51.905Z,1019.25
2023-04-03T06:57:51.857Z,1019.29
2023-04-03T06:58:52.011Z,1019.31
2023-04-03T06:59:51.802Z,1019.32
2023-04-03T07:00:51.818Z,1019.32
2023-04-03T07:01:51.865Z,1019.34
2023-04-03T07:02:51.788Z,1019.35
2023-04-03T07:03:51.928Z,1019.36
2023-04-03T07:04:51.828Z,1019.34
2023-04-03T07:05:51.791Z,1019.36
2023-04-03T07:06:51.763Z,1019.40
2023-04-03T07:07:51.740Z,1019.41
2023-04-03T07:08:51.692Z,1019.42
2023-04-03T07:09:51.746Z,1019.44
2023-04-03T07:10:51.682Z,1019.42
2023-04-03T07:11:51.715Z,1019.44
2023-04-03T07:12:51.705Z,1019.44
2023-04-03T07:13:51.684Z,1019.44
2023-04-03T07:14:51.643Z,1019.47
2023-04-03T07:15:51.673Z,1019.44
2023-04-03T07:16:52.059Z,1019.47
2023-04-03T07:17:51.663Z,1019.46
2023-04-03T07:18:51.701Z,1019.50
2023-04-03T07:19:51.593Z,1019.51
2023-04-03T07:20:51.585Z,1019.51
2023-04-03T07:21:51.674Z,1019.54
2023-04-03T07:22:51.891Z,1019.56
2023-04-03T07:23:51.551Z,1019.55
2023-04-03T07:24:51.588Z,1019.58
2023-04-03T07:25:51.535Z,1019.61
2023-04-03T07:26:51.570Z,1019.59
2023-04-03T07:27:51.565Z,1019.59
2023-04-03T07:28:51.497Z,1019.60
2023-04-03T07:29:51.501Z,1019.61
2023-04-03T07:30:51.677Z,1019.58
2023-04-03T07:31:51.541Z,1019.58
2023-04-03T07:32:51.485Z,1019.59
2023-04-03T07:33:51.464Z,1019.61
2023-04-03T07:34:51.848Z,1019.58
2023-04-03T07:35:51.536Z,1019.61
2023-04-03T07:36:51.430Z,1019.61
2023-04-03T07:37:51.924Z,1019.62
2023-04-03T07:38:51.426Z,1019.60
2023-04-03T07:39:51.384Z,1019.63
2023-04-03T07:40:51.368Z,1019.64
2023-04-03T07:41:51.421Z,1019.66
2023-04-03T07:42:51.361Z,1019.63
2023-04-03T07:43:51.350Z,1019.64
2023-04-03T07:44:51.330Z,1019.66
2023-04-03T07:45:51.353Z,1019.63
2023-04-03T07:46:51.322Z,1019.62
2023-04-03T07:47:51.374Z,1019.64
2023-04-03T07:48:51.343Z,1019.67
2023-04-03T07:49:51.288Z,1019.69
2023-04-03T07:50:51.302Z,1019.66
2023-04-03T07:51:51.268Z,1019.68
2023-04-03T07:52:51.244Z,1019.66
2023-04-03T07:53:51.279Z,1019.67
2023-04-03T07:54:51.230Z,1019.72
2023-04-03T07:55:51.219Z,1019.73
2023-04-03T07:56:51.250Z,1019.68
2023-04-03T07:57:51.340Z,1019.71
2023-04-03T07:58:51.229Z,1019.72
2023-04-03T07:59:51.197Z,1019.74
2023-04-03T08:00:51.365Z,1019.71
2023-04-03T08:01:51.162Z,1019.73
2023-04-03T08:02:51.237Z,1019.73
2023-04-03T08:03:51.329Z,1019.73
2023-04-03T08:04:51.217Z,1019.77
2023-04-03T08:05:51.120Z,1019.73
2023-04-03T08:06:51.116Z,1019.79
2023-04-03T08:07:51.102Z,1019.76
2023-04-03T08:08:51.130Z,1019.75
2023-04-03T08:09:51.083Z,1019.75
2023-04-03T08:10:51.163Z,1019.74
2023-04-03T08:11:51.057Z,1019.73
2023-04-03T08:12:51.025Z,1019.80
2023-04-03T08:13:51.846Z,1019.80
2023-04-03T08:14:51.072Z,1019.79
2023-04-03T08:15:51.045Z,1019.80
2023-04-03T08:16:51.004Z,1019.83
2023-04-03T08:17:51.017Z,1019.79
2023-04-03T08:18:50.972Z,1019.82
2023-04-03T08:19:51.309Z,1019.81
2023-04-03T08:20:51.020Z,1019.80
2023-04-03T08:21:50.954Z,1019.78
2023-04-03T08:22:50.954Z,1019.76
2023-04-03T08:23:50.950Z,1019.79
2023-04-03T08:24:58.693Z,1019.79
2023-04-03T08:25:50.919Z,1019.80
2023-04-03T08:26:50.900Z,1019.77
2023-04-03T08:27:50.969Z,1019.78
2023-04-03T08:28:50.876Z,1019.76
2023-04-03T08:29:50.895Z,1019.78
2023-04-03T08:30:50.904Z,1019.75
2023-04-03T08:31:50.867Z,1019.78
2023-04-03T08:32:50.850Z,1019.78
2023-04-03T08:33:50.938Z,1019.79
2023-04-03T08:34:51.091Z,1019.80
2023-04-03T08:35:50.818Z,1019.84
2023-04-03T08:36:50.862Z,1019.81
2023-04-03T08:37:50.815Z,1019.87
2023-04-03T08:38:50.787Z,1019.87
2023-04-03T08:39:50.766Z,1019.84
2023-04-03T08:40:50.765Z,1019.84
2023-04-03T08:41:50.761Z,1019.83
2023-04-03T08:42:50.743Z,1019.82
2023-04-03T08:43:50.982Z,1019.83
2023-04-03T08:44:50.727Z,1019.82
2023-04-03T08:45:50.718Z,1019.86
2023-04-03T08:46:50.691Z,1019.82
2023-04-03T08:47:51.434Z,1019.85
2023-04-03T08:48:50.666Z,1019.84
2023-04-03T08:49:50.713Z,1019.81
2023-04-03T08:50:52.914Z,1019.88
2023-04-03T08:51:50.674Z,1019.88
2023-04-03T08:52:50.744Z,1019.80
2023-04-03T08:53:50.734Z,1019.84
2023-04-03T08:54:50.625Z,1019.89
2023-04-03T08:55:50.601Z,1019.87
2023-04-03T08:56:50.602Z,1019.83
2023-04-03T08:57:50.626Z,1019.87
2023-04-03T08:58:50.603Z,1019.84
2023-04-03T08:59:50.585Z,1019.90
2023-04-03T09:00:50.541Z,1019.89
2023-04-03T09:01:50.549Z,1019.83
2023-04-03T09:02:50.602Z,1019.85
2023-04-03T09:03:50.559Z,1019.84
2023-04-03T09:04:50.560Z,1019.83
2023-04-03T09:05:50.510Z,1019.82
2023-04-03T09:06:50.488Z,1019.80
2023-04-03T09:07:50.474Z,1019.89
2023-04-03T09:08:50.460Z,1019.86
2023-04-03T09:09:50.449Z,1019.82
2023-04-03T09:10:50.818Z,1019.87
2023-04-03T09:11:50.476Z,1019.87
2023-04-03T09:12:50.469Z,1019.91
2023-04-03T09:13:50.478Z,1019.91
2023-04-03T09:14:50.427Z,1019.90
2023-04-03T09:15:50.448Z,1019.88
2023-04-03T09:16:50.377Z,1019.90
2023-04-03T09:17:50.393Z,1019.92
2023-04-03T09:18:50.371Z,1019.91
2023-04-03T09:19:50.397Z,1019.94
2023-04-03T09:20:50.346Z,1019.89
2023-04-03T09:21:50.340Z,1020.00
2023-04-03T09:22:52.757Z,1019.88
2023-04-03T09:23:50.315Z,1019.97
2023-04-03T09:24:50.288Z,1019.94
2023-04-03T09:25:50.592Z,1019.92
2023-04-03T09:26:50.283Z,1019.95
2023-04-03T09:27:50.273Z,1019.92
2023-04-03T09:28:51.272Z,1019.91
2023-04-03T09:29:50.362Z,1019.91
2023-04-03T09:30:50.310Z,1019.91
2023-04-03T09:31:50.300Z,1019.88
2023-04-03T09:32:51.123Z,1019.88
2023-04-03T09:33:50.221Z,1019.88
2023-04-03T09:34:50.200Z,1019.84
2023-04-03T09:35:50.328Z,1019.87
2023-04-03T09:36:50.382Z,1019.87
2023-04-03T09:37:50.172Z,1019.85
2023-04-03T09:38:50.149Z,1019.87
2023-04-03T09:39:50.161Z,1019.87
2023-04-03T09:40:50.616Z,1019.85
2023-04-03T09:41:50.388Z,1019.83
2023-04-03T09:42:55.526Z,1019.86
2023-04-03T09:43:50.123Z,1019.83
2023-04-03T09:44:50.111Z,1019.86
2023-04-03T09:45:50.097Z,1019.80
2023-04-03T09:46:50.116Z,1019.85
2023-04-03T09:47:50.090Z,1019.94
2023-04-03T09:48:54.933Z,1019.90
2023-04-03T09:49:50.112Z,1019.90
2023-04-03T09:50:50.042Z,1019.90
2023-04-03T09:51:50.034Z,1019.90
2023-04-03T09:52:50.154Z,1019.92
2023-04-03T09:53:50.083Z,1019.91
2023-04-03T09:54:49.968Z,1019.94
2023-04-03T09:55:49.994Z,1019.93
2023-04-03T09:56:50.022Z,1019.90
2023-04-03T09:57:51.583Z,1019.90
2023-04-03T09:58:51.344Z,1019.88
2023-04-03T09:59:49.934Z,1019.89
2023-04-03T10:00:49.946Z,1019.86
2023-04-03T10:01:50.001Z,1019.82
2023-04-03T10:02:49.966Z,1019.81
2023-04-03T10:03:49.906Z,1019.86
2023-04-03T10:05:02.508Z,1019.78
2023-04-03T10:05:49.922Z,1019.81
2023-04-03T10:06:49.881Z,1019.84
2023-04-03T10:08:49.833Z,1019.80
2023-04-03T10:09:49.862Z,1019.82
2023-04-03T10:10:49.828Z,1019.81
2023-04-03T10:11:49.864Z,1019.80
2023-04-03T10:12:49.811Z,1019.77
2023-04-03T10:13:51.135Z,1019.79
2023-04-03T10:14:49.815Z,1019.82
2023-04-03T10:15:49.777Z,1019.75
2023-04-03T10:16:49.764Z,1019.75
2023-04-03T10:17:49.765Z,1019.75
2023-04-03T10:18:49.851Z,1019.74
2023-04-03T10:19:50.043Z,1019.73
2023-04-03T10:20:49.761Z,1019.76
2023-04-03T10:21:49.717Z,1019.73
2023-04-03T10:22:49.690Z,1019.74
2023-04-03T10:23:49.813Z,1019.77
2023-04-03T10:24:49.661Z,1019.74
2023-04-03T10:25:49.669Z,1019.73
2023-04-03T10:26:49.662Z,1019.69
2023-04-03T10:27:49.650Z,1019.68
2023-04-03T10:28:49.668Z,1019.73
2023-04-03T10:29:49.817Z,1019.72
2023-04-03T10:30:49.634Z,1019.67
2023-04-03T10:31:49.628Z,1019.64
2023-04-03T10:32:49.603Z,1019.67
2023-04-03T10:33:49.574Z,1019.60
2023-04-03T10:35:02.295Z,1019.57
2023-04-03T10:35:49.668Z,1019.55
2023-04-03T10:36:49.545Z,1019.54
2023-04-03T10:37:49.592Z,1019.61
2023-04-03T10:38:49.529Z,1019.70
2023-04-03T10:39:49.546Z,1019.49
2023-04-03T10:40:49.541Z,1019.63
2023-04-03T10:41:49.511Z,1019.55
2023-04-03T10:42:49.730Z,1019.54
2023-04-03T10:43:49.467Z,1019.60
2023-04-03T10:44:49.471Z,1019.58
2023-04-03T10:45:49.624Z,1019.63
2023-04-03T10:46:49.435Z,1019.58
2023-04-03T10:47:49.739Z,1019.62
2023-04-03T10:48:49.472Z,1019.56
2023-04-03T10:49:57.186Z,1019.57
2023-04-03T10:50:49.413Z,1019.55
2023-04-03T10:51:49.491Z,1019.49
2023-04-03T10:52:49.382Z,1019.49
2023-04-03T10:53:49.368Z,1019.50
2023-04-03T10:54:49.368Z,1019.46
2023-04-03T10:55:49.415Z,1019.43
2023-04-03T10:56:55.379Z,1019.40
2023-04-03T10:57:49.416Z,1019.30
2023-04-03T10:58:49.315Z,1019.32
2023-04-03T10:59:49.333Z,1019.28
2023-04-03T11:00:49.350Z,1019.31
2023-04-03T11:01:49.328Z,1019.27
2023-04-03T11:02:49.376Z,1019.31
2023-04-03T11:03:49.325Z,1019.24
2023-04-03T11:04:49.283Z,1019.29
2023-04-03T11:05:49.264Z,1019.27
2023-04-03T11:06:49.250Z,1019.28
2023-04-03T11:07:49.272Z,1019.23
2023-04-03T11:08:49.256Z,1019.26
2023-04-03T11:09:49.219Z,1019.27
2023-04-03T11:10:49.229Z,1019.24
2023-04-03T11:11:49.275Z,1019.26
2023-04-03T11:12:49.201Z,1019.21
2023-04-03T11:13:49.169Z,1019.18
2023-04-03T11:14:49.198Z,1019.20
2023-04-03T11:15:50.412Z,1019.19
2023-04-03T11:16:54.526Z,1019.17
2023-04-03T11:17:49.897Z,1019.16
2023-04-03T11:18:49.155Z,1019.07
2023-04-03T11:19:49.110Z,1019.18
2023-04-03T11:20:49.100Z,1019.16
2023-04-03T11:21:49.071Z,1019.14
2023-04-03T11:22:49.078Z,1019.10
2023-04-03T11:23:50.196Z,1019.13
2023-04-03T11:24:49.082Z,1019.12
2023-04-03T11:25:49.721Z,1019.13
2023-04-03T11:26:49.039Z,1019.09
2023-04-03T11:27:49.027Z,1019.07
2023-04-03T11:28:49.044Z,1019.05
2023-04-03T11:29:49.014Z,1019.09
2023-04-03T11:30:49.026Z,1019.14
2023-04-03T11:31:49.023Z,1019.10
2023-04-03T11:32:49.000Z,1019.05
2023-04-03T11:33:49.183Z,1019.01
2023-04-03T11:34:48.934Z,1019.04
2023-04-03T11:35:48.973Z,1019.03
2023-04-03T11:36:48.982Z,1019.03
2023-04-03T11:37:48.920Z,1019.01
2023-04-03T11:38:49.759Z,1019.07
2023-04-03T11:39:49.242Z,1019.03
2023-04-03T11:40:48.900Z,1019.05
2023-04-03T11:41:49.115Z,1019.05
2023-04-03T11:42:48.915Z,1018.98
2023-04-03T11:43:48.852Z,1018.98
2023-04-03T11:44:48.837Z,1018.94
2023-04-03T11:45:48.905Z,1018.95
2023-04-03T11:46:48.842Z,1018.99
2023-04-03T11:47:48.816Z,1019.00
2023-04-03T11:48:48.808Z,1019.02
2023-04-03T11:49:48.787Z,1019.03
2023-04-03T11:50:48.776Z,1019.01
2023-04-03T11:51:48.801Z,1018.99
2023-04-03T11:52:48.767Z,1019.00
2023-04-03T11:53:48.787Z,1019.00
2023-04-03T11:54:48.737Z,1018.95
2023-04-03T11:55:48.734Z,1018.96
2023-04-03T11:56:48.707Z,1018.94
2023-04-03T11:57:48.805Z,1018.90
2023-04-03T11:58:48.709Z,1018.98
2023-04-03T11:59:48.675Z,1019.01
2023-04-03T12:00:48.722Z,1018.97
2023-04-03T12:01:49.095Z,1019.04
2023-04-03T12:02:54.230Z,1019.02
2023-04-03T12:03:48.757Z,1018.96
2023-04-03T12:04:48.666Z,1018.94
2023-04-03T12:05:48.652Z,1018.98
2023-04-03T12:06:48.588Z,1019.02